sensor_id;sensor_type;location;lat;lon;timestamp;temperature;humidity
14057;DHT22;7103;54.300;10.180;2022-11-15T00:00:57;6.30;1.00
14057;DHT22;7103;54.300;10.180;2022-11-15T00:03:25;6.40;1.00
14057;DHT22;7103;54.300;10.180;2022-11-15T00:05:53;6.50;1.00
14057;DHT22;7103;54.300;10.180;2022-11-15T00:08:20;6.50;1.00
14057;DHT22;7103;54.300;10.180;2022-11-15T00:10:57;6.40;1.00
14057;DHT22;7103;54.300;10.180;2022-11-15T00:13:25;6.50;1.00
14057;DHT22;7103;54.300;10.180;2022-11-15T00:15:52;6.60;1.00
14057;DHT22;7103;54.300;10.180;2022-11-15T00:18:19;6.50;1.00
14057;DHT22;7103;54.300;10.180;2022-11-15T00:20:46;6.60;1.00
14057;DHT22;7103;54.300;10.180;2022-11-15T00:23:13;6.50;1.00
14057;DHT22;7103;54.300;10.180;2022-11-15T00:25:40;6.50;1.00
14057;DHT22;7103;54.300;10.180;2022-11-15T00:28:07;6.50;1.00
14057;DHT22;7103;54.300;10.180;2022-11-15T00:30:33;6.60;1.00
14057;DHT22;7103;54.300;10.180;2022-11-15T00:33:02;6.60;1.00
14057;DHT22;7103;54.300;10.180;2022-11-15T00:35:32;6.60;1.00
14057;DHT22;7103;54.300;10.180;2022-11-15T00:38:00;6.60;1.00
14057;DHT22;7103;54.300;10.180;2022-11-15T00:40:28;6.60;1.00
14057;DHT22;7103;54.300;10.180;2022-11-15T00:42:55;6.70;1.00
14057;DHT22;7103;54.300;10.180;2022-11-15T00:45:22;6.80;1.00
14057;DHT22;7103;54.300;10.180;2022-11-15T00:47:49;6.80;1.00
14057;DHT22;7103;54.300;10.180;2022-11-15T00:50:16;6.80;1.00
14057;DHT22;7103;54.300;10.180;2022-11-15T00:52:44;6.80;1.00
14057;DHT22;7103;54.300;10.180;2022-11-15T00:55:16;6.70;1.00
14057;DHT22;7103;54.300;10.180;2022-11-15T00:57:44;6.80;1.00
14057;DHT22;7103;54.300;10.180;2022-11-15T01:00:11;6.80;1.00
14057;DHT22;7103;54.300;10.180;2022-11-15T01:02:39;6.80;1.00
14057;DHT22;7103;54.300;10.180;2022-11-15T01:05:06;6.80;1.00
14057;DHT22;7103;54.300;10.180;2022-11-15T01:07:34;6.90;1.00
14057;DHT22;7103;54.300;10.180;2022-11-15T01:10:01;6.90;1.00
14057;DHT22;7103;54.300;10.180;2022-11-15T01:12:28;6.90;1.00
14057;DHT22;7103;54.300;10.180;2022-11-15T01:14:54;6.90;1.00
14057;DHT22;7103;54.300;10.180;2022-11-15T01:17:21;6.90;1.00
14057;DHT22;7103;54.300;10.180;2022-11-15T01:19:48;6.80;1.00
14057;DHT22;7103;54.300;10.180;2022-11-15T01:22:15;6.70;1.00
14057;DHT22;7103;54.300;10.180;2022-11-15T01:24:42;6.70;1.00
14057;DHT22;7103;54.300;10.180;2022-11-15T01:27:10;6.80;1.00
14057;DHT22;7103;54.300;10.180;2022-11-15T01:29:36;6.90;1.00
14057;DHT22;7103;54.300;10.180;2022-11-15T01:32:03;6.90;1.00
14057;DHT22;7103;54.300;10.180;2022-11-15T01:34:30;6.90;1.00
14057;DHT22;7103;54.300;10.180;2022-11-15T01:36:57;6.90;1.00
14057;DHT22;7103;54.300;10.180;2022-11-15T01:39:24;6.90;1.00
14057;DHT22;7103;54.300;10.180;2022-11-15T01:41:51;6.90;1.00
14057;DHT22;7103;54.300;10.180;2022-11-15T01:44:41;6.90;1.00
14057;DHT22;7103;54.300;10.180;2022-11-15T01:47:12;6.90;1.00
14057;DHT22;7103;54.300;10.180;2022-11-15T01:49:47;6.90;1.00
14057;DHT22;7103;54.300;10.180;2022-11-15T01:52:19;6.90;1.00
14057;DHT22;7103;54.300;10.180;2022-11-15T01:54:48;6.90;1.00
14057;DHT22;7103;54.300;10.180;2022-11-15T01:57:16;6.90;1.00
14057;DHT22;7103;54.300;10.180;2022-11-15T01:59:44;7.00;1.00
14057;DHT22;7103;54.300;10.180;2022-11-15T02:02:12;7.00;1.00
14057;DHT22;7103;54.300;10.180;2022-11-15T02:04:45;6.90;1.00
14057;DHT22;7103;54.300;10.180;2022-11-15T02:07:17;6.90;1.00
14057;DHT22;7103;54.300;10.180;2022-11-15T02:09:44;6.90;1.00
14057;DHT22;7103;54.300;10.180;2022-11-15T02:12:15;6.90;1.00
14057;DHT22;7103;54.300;10.180;2022-11-15T02:14:46;7.00;1.00
14057;DHT22;7103;54.300;10.180;2022-11-15T02:25:47;7.10;1.00
14057;DHT22;7103;54.300;10.180;2022-11-15T02:36:00;7.10;1.00
14057;DHT22;7103;54.300;10.180;2022-11-15T02:38:47;7.10;1.00
14057;DHT22;7103;54.300;10.180;2022-11-15T02:41:39;7.00;1.00
14057;DHT22;7103;54.300;10.180;2022-11-15T02:44:33;7.00;1.00
14057;DHT22;7103;54.300;10.180;2022-11-15T02:47:07;7.00;1.00
14057;DHT22;7103;54.300;10.180;2022-11-15T02:50:09;6.90;1.00
14057;DHT22;7103;54.300;10.180;2022-11-15T02:52:36;6.90;1.00
14057;DHT22;7103;54.300;10.180;2022-11-15T02:55:03;7.00;1.00
14057;DHT22;7103;54.300;10.180;2022-11-15T02:57:51;6.90;1.00
14057;DHT22;7103;54.300;10.180;2022-11-15T03:00:20;6.70;1.00
14057;DHT22;7103;54.300;10.180;2022-11-15T03:02:58;6.90;1.00
14057;DHT22;7103;54.300;10.180;2022-11-15T03:11:10;6.80;1.00
14057;DHT22;7103;54.300;10.180;2022-11-15T03:16:28;6.70;1.00
14057;DHT22;7103;54.300;10.180;2022-11-15T03:19:07;6.70;1.00
14057;DHT22;7103;54.300;10.180;2022-11-15T03:21:37;6.70;1.00
14057;DHT22;7103;54.300;10.180;2022-11-15T03:24:07;6.70;1.00
14057;DHT22;7103;54.300;10.180;2022-11-15T03:26:36;6.60;1.00
14057;DHT22;7103;54.300;10.180;2022-11-15T03:29:20;6.60;1.00
14057;DHT22;7103;54.300;10.180;2022-11-15T03:31:57;6.60;1.00
14057;DHT22;7103;54.300;10.180;2022-11-15T03:34:32;6.50;1.00
14057;DHT22;7103;54.300;10.180;2022-11-15T03:37:01;6.50;1.00
14057;DHT22;7103;54.300;10.180;2022-11-15T03:39:29;6.60;1.00
14057;DHT22;7103;54.300;10.180;2022-11-15T03:44:55;6.50;1.00
14057;DHT22;7103;54.300;10.180;2022-11-15T03:49:58;6.40;1.00
14057;DHT22;7103;54.300;10.180;2022-11-15T03:52:25;6.40;1.00
14057;DHT22;7103;54.300;10.180;2022-11-15T03:54:55;6.40;1.00
14057;DHT22;7103;54.300;10.180;2022-11-15T03:57:22;6.50;1.00
14057;DHT22;7103;54.300;10.180;2022-11-15T03:59:49;6.40;1.00
14057;DHT22;7103;54.300;10.180;2022-11-15T04:02:16;6.40;1.00
14057;DHT22;7103;54.300;10.180;2022-11-15T04:04:43;6.30;1.00
14057;DHT22;7103;54.300;10.180;2022-11-15T04:07:10;6.30;1.00
14057;DHT22;7103;54.300;10.180;2022-11-15T04:09:37;6.40;1.00
14057;DHT22;7103;54.300;10.180;2022-11-15T04:12:22;6.30;1.00
14057;DHT22;7103;54.300;10.180;2022-11-15T04:15:13;6.20;1.00
14057;DHT22;7103;54.300;10.180;2022-11-15T04:17:54;6.20;1.00
14057;DHT22;7103;54.300;10.180;2022-11-15T04:20:26;6.30;1.00
14057;DHT22;7103;54.300;10.180;2022-11-15T04:23:18;6.40;1.00
14057;DHT22;7103;54.300;10.180;2022-11-15T04:26:10;6.30;1.00
14057;DHT22;7103;54.300;10.180;2022-11-15T04:28:37;6.30;1.00
14057;DHT22;7103;54.300;10.180;2022-11-15T04:31:23;6.20;1.00
14057;DHT22;7103;54.300;10.180;2022-11-15T04:33:50;6.20;1.00
14057;DHT22;7103;54.300;10.180;2022-11-15T04:36:17;6.10;1.00
14057;DHT22;7103;54.300;10.180;2022-11-15T04:39:03;6.20;1.00
14057;DHT22;7103;54.300;10.180;2022-11-15T04:41:30;6.10;1.00
14057;DHT22;7103;54.300;10.180;2022-11-15T04:43:57;6.10;1.00
14057;DHT22;7103;54.300;10.180;2022-11-15T04:46:24;6.10;1.00
14057;DHT22;7103;54.300;10.180;2022-11-15T04:48:52;6.10;1.00
14057;DHT22;7103;54.300;10.180;2022-11-15T04:51:24;6.10;1.00
14057;DHT22;7103;54.300;10.180;2022-11-15T04:53:51;6.10;1.00
14057;DHT22;7103;54.300;10.180;2022-11-15T04:56:18;6.20;1.00
14057;DHT22;7103;54.300;10.180;2022-11-15T04:58:48;6.20;1.00
14057;DHT22;7103;54.300;10.180;2022-11-15T05:01:16;6.10;1.00
14057;DHT22;7103;54.300;10.180;2022-11-15T05:03:44;6.10;1.00
14057;DHT22;7103;54.300;10.180;2022-11-15T05:06:29;6.00;1.00
14057;DHT22;7103;54.300;10.180;2022-11-15T05:08:56;6.10;1.00
14057;DHT22;7103;54.300;10.180;2022-11-15T05:11:23;6.10;1.00
14057;DHT22;7103;54.300;10.180;2022-11-15T05:13:51;6.10;1.00
14057;DHT22;7103;54.300;10.180;2022-11-15T05:16:17;6.10;1.00
14057;DHT22;7103;54.300;10.180;2022-11-15T05:18:44;6.10;1.00
14057;DHT22;7103;54.300;10.180;2022-11-15T05:21:14;6.10;1.00
14057;DHT22;7103;54.300;10.180;2022-11-15T05:23:41;6.00;1.00
14057;DHT22;7103;54.300;10.180;2022-11-15T05:26:09;5.90;1.00
14057;DHT22;7103;54.300;10.180;2022-11-15T05:28:36;6.00;1.00
14057;DHT22;7103;54.300;10.180;2022-11-15T05:31:06;6.00;1.00
14057;DHT22;7103;54.300;10.180;2022-11-15T05:33:35;6.00;1.00
14057;DHT22;7103;54.300;10.180;2022-11-15T05:36:07;6.00;1.00
14057;DHT22;7103;54.300;10.180;2022-11-15T05:38:36;6.00;1.00
14057;DHT22;7103;54.300;10.180;2022-11-15T05:41:04;6.10;1.00
14057;DHT22;7103;54.300;10.180;2022-11-15T05:43:32;6.20;1.00
14057;DHT22;7103;54.300;10.180;2022-11-15T05:46:03;6.20;1.00
14057;DHT22;7103;54.300;10.180;2022-11-15T05:48:31;6.20;1.00
14057;DHT22;7103;54.300;10.180;2022-11-15T05:50:59;6.20;1.00
14057;DHT22;7103;54.300;10.180;2022-11-15T05:53:26;6.40;1.00
14057;DHT22;7103;54.300;10.180;2022-11-15T05:55:53;6.40;1.00
14057;DHT22;7103;54.300;10.180;2022-11-15T05:58:20;6.40;1.00
14057;DHT22;7103;54.300;10.180;2022-11-15T06:00:47;6.50;1.00
14057;DHT22;7103;54.300;10.180;2022-11-15T06:03:14;6.40;1.00
14057;DHT22;7103;54.300;10.180;2022-11-15T06:05:41;6.50;1.00
14057;DHT22;7103;54.300;10.180;2022-11-15T06:08:08;6.60;1.00
14057;DHT22;7103;54.300;10.180;2022-11-15T06:10:35;6.50;1.00
14057;DHT22;7103;54.300;10.180;2022-11-15T06:13:03;6.60;1.00
14057;DHT22;7103;54.300;10.180;2022-11-15T06:15:32;6.60;1.00
14057;DHT22;7103;54.300;10.180;2022-11-15T06:18:00;6.70;1.00
14057;DHT22;7103;54.300;10.180;2022-11-15T06:20:28;6.70;1.00
14057;DHT22;7103;54.300;10.180;2022-11-15T06:22:59;6.60;1.00
14057;DHT22;7103;54.300;10.180;2022-11-15T06:25:27;6.80;1.00
14057;DHT22;7103;54.300;10.180;2022-11-15T06:27:56;6.70;1.00
14057;DHT22;7103;54.300;10.180;2022-11-15T06:30:24;6.60;1.00
14057;DHT22;7103;54.300;10.180;2022-11-15T06:32:52;6.60;1.00
14057;DHT22;7103;54.300;10.180;2022-11-15T06:35:24;6.60;1.00
14057;DHT22;7103;54.300;10.180;2022-11-15T06:37:51;6.60;1.00
14057;DHT22;7103;54.300;10.180;2022-11-15T06:40:18;6.60;1.00
14057;DHT22;7103;54.300;10.180;2022-11-15T06:42:45;6.70;1.00
14057;DHT22;7103;54.300;10.180;2022-11-15T06:45:11;6.70;1.00
14057;DHT22;7103;54.300;10.180;2022-11-15T06:47:45;6.80;1.00
14057;DHT22;7103;54.300;10.180;2022-11-15T06:50:13;6.80;1.00
14057;DHT22;7103;54.300;10.180;2022-11-15T06:52:41;6.80;1.00
14057;DHT22;7103;54.300;10.180;2022-11-15T06:55:08;6.80;1.00
14057;DHT22;7103;54.300;10.180;2022-11-15T06:57:36;6.80;1.00
14057;DHT22;7103;54.300;10.180;2022-11-15T07:00:06;6.80;1.00
14057;DHT22;7103;54.300;10.180;2022-11-15T07:02:33;6.90;1.00
14057;DHT22;7103;54.300;10.180;2022-11-15T07:05:00;6.90;1.00
14057;DHT22;7103;54.300;10.180;2022-11-15T07:07:26;7.00;1.00
14057;DHT22;7103;54.300;10.180;2022-11-15T07:09:53;7.00;1.00
14057;DHT22;7103;54.300;10.180;2022-11-15T07:12:20;7.10;1.00
14057;DHT22;7103;54.300;10.180;2022-11-15T07:14:47;7.00;1.00
14057;DHT22;7103;54.300;10.180;2022-11-15T07:17:14;7.30;1.00
14057;DHT22;7103;54.300;10.180;2022-11-15T07:19:41;7.10;1.00
14057;DHT22;7103;54.300;10.180;2022-11-15T07:22:08;7.10;1.00
14057;DHT22;7103;54.300;10.180;2022-11-15T07:24:34;7.10;1.00
14057;DHT22;7103;54.300;10.180;2022-11-15T07:27:01;7.30;1.00
14057;DHT22;7103;54.300;10.180;2022-11-15T07:29:28;7.30;1.00
14057;DHT22;7103;54.300;10.180;2022-11-15T07:31:55;7.30;1.00
14057;DHT22;7103;54.300;10.180;2022-11-15T07:34:22;7.30;1.00
14057;DHT22;7103;54.300;10.180;2022-11-15T07:36:50;7.20;1.00
14057;DHT22;7103;54.300;10.180;2022-11-15T07:39:17;7.30;1.00
14057;DHT22;7103;54.300;10.180;2022-11-15T07:41:44;7.30;1.00
14057;DHT22;7103;54.300;10.180;2022-11-15T07:44:11;7.30;1.00
14057;DHT22;7103;54.300;10.180;2022-11-15T07:46:38;7.30;1.00
14057;DHT22;7103;54.300;10.180;2022-11-15T07:49:04;7.40;1.00
14057;DHT22;7103;54.300;10.180;2022-11-15T07:51:31;7.50;1.00
14057;DHT22;7103;54.300;10.180;2022-11-15T07:53:58;7.50;1.00
14057;DHT22;7103;54.300;10.180;2022-11-15T07:56:25;7.60;1.00
14057;DHT22;7103;54.300;10.180;2022-11-15T07:58:52;7.60;1.00
14057;DHT22;7103;54.300;10.180;2022-11-15T08:01:19;7.60;1.00
14057;DHT22;7103;54.300;10.180;2022-11-15T08:03:46;7.70;1.00
14057;DHT22;7103;54.300;10.180;2022-11-15T08:06:13;7.60;1.00
14057;DHT22;7103;54.300;10.180;2022-11-15T08:08:40;7.70;1.00
14057;DHT22;7103;54.300;10.180;2022-11-15T08:11:07;7.80;1.00
14057;DHT22;7103;54.300;10.180;2022-11-15T08:13:34;7.80;1.00
14057;DHT22;7103;54.300;10.180;2022-11-15T08:16:02;7.80;1.00
14057;DHT22;7103;54.300;10.180;2022-11-15T08:18:29;7.90;1.00
14057;DHT22;7103;54.300;10.180;2022-11-15T08:21:00;7.90;1.00
14057;DHT22;7103;54.300;10.180;2022-11-15T08:23:28;7.90;1.00
14057;DHT22;7103;54.300;10.180;2022-11-15T08:26:03;7.90;1.00
14057;DHT22;7103;54.300;10.180;2022-11-15T08:28:31;7.90;1.00
14057;DHT22;7103;54.300;10.180;2022-11-15T08:30:58;8.00;1.00
14057;DHT22;7103;54.300;10.180;2022-11-15T08:33:25;8.00;1.00
14057;DHT22;7103;54.300;10.180;2022-11-15T08:35:52;7.90;1.00
14057;DHT22;7103;54.300;10.180;2022-11-15T08:38:22;7.90;1.00
14057;DHT22;7103;54.300;10.180;2022-11-15T08:40:58;8.00;1.00
14057;DHT22;7103;54.300;10.180;2022-11-15T08:43:25;8.00;1.00
14057;DHT22;7103;54.300;10.180;2022-11-15T08:45:58;8.10;1.00
14057;DHT22;7103;54.300;10.180;2022-11-15T08:48:25;8.10;1.00
14057;DHT22;7103;54.300;10.180;2022-11-15T08:50:56;8.10;1.00
14057;DHT22;7103;54.300;10.180;2022-11-15T08:53:23;8.20;1.00
14057;DHT22;7103;54.300;10.180;2022-11-15T08:55:50;8.20;1.00
14057;DHT22;7103;54.300;10.180;2022-11-15T08:58:16;8.30;1.00
14057;DHT22;7103;54.300;10.180;2022-11-15T09:00:43;8.30;1.00
14057;DHT22;7103;54.300;10.180;2022-11-15T09:03:10;8.30;1.00
14057;DHT22;7103;54.300;10.180;2022-11-15T09:05:37;8.30;1.00
14057;DHT22;7103;54.300;10.180;2022-11-15T09:08:04;8.30;1.00
14057;DHT22;7103;54.300;10.180;2022-11-15T09:10:51;8.40;1.00
14057;DHT22;7103;54.300;10.180;2022-11-15T09:13:18;8.30;1.00
14057;DHT22;7103;54.300;10.180;2022-11-15T09:15:45;8.40;1.00
14057;DHT22;7103;54.300;10.180;2022-11-15T09:18:12;8.40;99.90
14057;DHT22;7103;54.300;10.180;2022-11-15T09:20:39;8.50;1.00
14057;DHT22;7103;54.300;10.180;2022-11-15T09:23:06;8.50;99.90
14057;DHT22;7103;54.300;10.180;2022-11-15T09:25:33;8.50;1.00
14057;DHT22;7103;54.300;10.180;2022-11-15T09:28:00;8.60;99.90
14057;DHT22;7103;54.300;10.180;2022-11-15T09:30:27;8.50;99.90
14057;DHT22;7103;54.300;10.180;2022-11-15T09:32:53;8.60;99.90
14057;DHT22;7103;54.300;10.180;2022-11-15T09:35:20;8.60;99.90
14057;DHT22;7103;54.300;10.180;2022-11-15T09:37:47;8.70;99.90
14057;DHT22;7103;54.300;10.180;2022-11-15T09:40:22;8.70;99.90
14057;DHT22;7103;54.300;10.180;2022-11-15T09:43:25;8.70;99.90
14057;DHT22;7103;54.300;10.180;2022-11-15T09:45:57;8.70;99.90
14057;DHT22;7103;54.300;10.180;2022-11-15T09:49:06;8.70;99.90
14057;DHT22;7103;54.300;10.180;2022-11-15T09:51:41;8.70;99.90
14057;DHT22;7103;54.300;10.180;2022-11-15T09:57:16;8.80;99.90
14057;DHT22;7103;54.300;10.180;2022-11-15T10:05:45;8.80;99.90
14057;DHT22;7103;54.300;10.180;2022-11-15T10:11:24;8.90;99.90
14057;DHT22;7103;54.300;10.180;2022-11-15T10:14:22;8.90;99.90
14057;DHT22;7103;54.300;10.180;2022-11-15T10:25:17;9.10;99.90
14057;DHT22;7103;54.300;10.180;2022-11-15T10:30:37;9.20;99.90
14057;DHT22;7103;54.300;10.180;2022-11-15T10:46:35;9.30;99.90
14057;DHT22;7103;54.300;10.180;2022-11-15T10:49:19;9.20;99.90
14057;DHT22;7103;54.300;10.180;2022-11-15T10:51:55;9.20;99.90
14057;DHT22;7103;54.300;10.180;2022-11-15T10:57:14;9.20;99.90
14057;DHT22;7103;54.300;10.180;2022-11-15T10:59:46;9.20;99.90
14057;DHT22;7103;54.300;10.180;2022-11-15T11:02:37;9.20;99.90
14057;DHT22;7103;54.300;10.180;2022-11-15T11:05:24;9.30;99.90
14057;DHT22;7103;54.300;10.180;2022-11-15T11:08:01;9.30;99.90
14057;DHT22;7103;54.300;10.180;2022-11-15T11:10:29;9.30;99.90
14057;DHT22;7103;54.300;10.180;2022-11-15T11:19:00;9.30;99.90
14057;DHT22;7103;54.300;10.180;2022-11-15T11:27:18;9.30;99.90
14057;DHT22;7103;54.300;10.180;2022-11-15T11:30:06;9.30;99.90
14057;DHT22;7103;54.300;10.180;2022-11-15T11:49:39;9.40;99.90
14057;DHT22;7103;54.300;10.180;2022-11-15T12:00:26;9.60;99.90
14057;DHT22;7103;54.300;10.180;2022-11-15T12:03:17;9.60;99.90
14057;DHT22;7103;54.300;10.180;2022-11-15T12:05:48;9.50;99.90
14057;DHT22;7103;54.300;10.180;2022-11-15T12:08:46;9.60;99.90
14057;DHT22;7103;54.300;10.180;2022-11-15T12:13:48;9.70;99.90
14057;DHT22;7103;54.300;10.180;2022-11-15T12:16:41;9.70;99.90
14057;DHT22;7103;54.300;10.180;2022-11-15T12:19:08;9.80;99.90
14057;DHT22;7103;54.300;10.180;2022-11-15T12:21:57;9.80;99.90
14057;DHT22;7103;54.300;10.180;2022-11-15T12:27:35;9.80;99.90
14057;DHT22;7103;54.300;10.180;2022-11-15T12:30:27;9.80;99.90
14057;DHT22;7103;54.300;10.180;2022-11-15T12:32:59;9.90;99.90
14057;DHT22;7103;54.300;10.180;2022-11-15T12:35:38;9.80;99.90
14057;DHT22;7103;54.300;10.180;2022-11-15T12:38:09;9.90;99.90
14057;DHT22;7103;54.300;10.180;2022-11-15T12:40:40;9.90;99.90
14057;DHT22;7103;54.300;10.180;2022-11-15T12:43:41;9.80;99.90
14057;DHT22;7103;54.300;10.180;2022-11-15T12:59:58;10.00;99.90
14057;DHT22;7103;54.300;10.180;2022-11-15T13:02:36;10.00;99.90
14057;DHT22;7103;54.300;10.180;2022-11-15T13:17:47;10.10;99.90
14057;DHT22;7103;54.300;10.180;2022-11-15T13:28:18;10.20;99.90
14057;DHT22;7103;54.300;10.180;2022-11-15T13:33:25;10.20;99.90
14057;DHT22;7103;54.300;10.180;2022-11-15T13:36:05;10.30;99.90
14057;DHT22;7103;54.300;10.180;2022-11-15T13:38:35;10.30;99.90
14057;DHT22;7103;54.300;10.180;2022-11-15T13:41:18;10.30;99.90
14057;DHT22;7103;54.300;10.180;2022-11-15T13:43:48;10.30;99.90
14057;DHT22;7103;54.300;10.180;2022-11-15T13:46:26;10.30;99.90
14057;DHT22;7103;54.300;10.180;2022-11-15T13:48:57;10.30;99.90
14057;DHT22;7103;54.300;10.180;2022-11-15T13:51:46;10.20;99.90
14057;DHT22;7103;54.300;10.180;2022-11-15T13:57:13;10.20;99.90
14057;DHT22;7103;54.300;10.180;2022-11-15T13:59:52;10.20;99.90
14057;DHT22;7103;54.300;10.180;2022-11-15T14:02:47;10.20;99.90
14057;DHT22;7103;54.300;10.180;2022-11-15T14:05:15;10.20;99.90
14057;DHT22;7103;54.300;10.180;2022-11-15T14:10:41;10.30;99.90
14057;DHT22;7103;54.300;10.180;2022-11-15T14:13:28;10.30;99.90
14057;DHT22;7103;54.300;10.180;2022-11-15T14:16:13;10.50;99.90
14057;DHT22;7103;54.300;10.180;2022-11-15T14:21:12;10.40;99.90
14057;DHT22;7103;54.300;10.180;2022-11-15T14:23:39;10.40;99.90
14057;DHT22;7103;54.300;10.180;2022-11-15T14:26:25;10.40;99.90
14057;DHT22;7103;54.300;10.180;2022-11-15T14:28:52;10.50;99.90
14057;DHT22;7103;54.300;10.180;2022-11-15T14:31:19;10.50;99.90
14057;DHT22;7103;54.300;10.180;2022-11-15T14:33:50;10.60;99.90
14057;DHT22;7103;54.300;10.180;2022-11-15T14:36:19;10.60;99.90
14057;DHT22;7103;54.300;10.180;2022-11-15T14:38:47;10.70;99.90
14057;DHT22;7103;54.300;10.180;2022-11-15T14:41:21;10.70;99.90
14057;DHT22;7103;54.300;10.180;2022-11-15T14:43:49;10.70;99.90
14057;DHT22;7103;54.300;10.180;2022-11-15T14:46:16;10.70;99.90
14057;DHT22;7103;54.300;10.180;2022-11-15T14:48:43;10.70;99.90
14057;DHT22;7103;54.300;10.180;2022-11-15T14:51:15;10.70;99.90
14057;DHT22;7103;54.300;10.180;2022-11-15T14:53:44;10.70;99.90
14057;DHT22;7103;54.300;10.180;2022-11-15T14:56:11;10.60;99.90
14057;DHT22;7103;54.300;10.180;2022-11-15T14:58:38;10.60;99.90
14057;DHT22;7103;54.300;10.180;2022-11-15T15:01:19;10.60;99.90
14057;DHT22;7103;54.300;10.180;2022-11-15T15:03:46;10.60;99.90
14057;DHT22;7103;54.300;10.180;2022-11-15T15:06:13;10.50;99.90
14057;DHT22;7103;54.300;10.180;2022-11-15T15:08:44;10.50;99.90
14057;DHT22;7103;54.300;10.180;2022-11-15T15:11:22;10.50;99.90
14057;DHT22;7103;54.300;10.180;2022-11-15T15:13:50;10.60;99.90
14057;DHT22;7103;54.300;10.180;2022-11-15T15:16:17;10.60;99.90
14057;DHT22;7103;54.300;10.180;2022-11-15T15:18:43;10.50;99.90
14057;DHT22;7103;54.300;10.180;2022-11-15T15:21:25;10.40;99.90
14057;DHT22;7103;54.300;10.180;2022-11-15T15:24:01;10.30;99.90
14057;DHT22;7103;54.300;10.180;2022-11-15T15:26:28;10.20;99.90
14057;DHT22;7103;54.300;10.180;2022-11-15T15:28:55;10.10;99.90
14057;DHT22;7103;54.300;10.180;2022-11-15T15:31:22;10.10;99.90
14057;DHT22;7103;54.300;10.180;2022-11-15T15:33:49;10.00;99.90
14057;DHT22;7103;54.300;10.180;2022-11-15T15:36:18;9.90;99.90
14057;DHT22;7103;54.300;10.180;2022-11-15T15:38:45;9.90;99.90
14057;DHT22;7103;54.300;10.180;2022-11-15T15:41:16;10.00;99.90
14057;DHT22;7103;54.300;10.180;2022-11-15T15:43:44;9.90;99.90
14057;DHT22;7103;54.300;10.180;2022-11-15T15:46:14;9.90;99.90
14057;DHT22;7103;54.300;10.180;2022-11-15T15:48:41;9.90;99.90
14057;DHT22;7103;54.300;10.180;2022-11-15T15:51:08;9.90;99.90
14057;DHT22;7103;54.300;10.180;2022-11-15T15:53:45;10.00;99.90
14057;DHT22;7103;54.300;10.180;2022-11-15T15:56:12;10.00;99.90
14057;DHT22;7103;54.300;10.180;2022-11-15T15:58:39;9.90;99.90
14057;DHT22;7103;54.300;10.180;2022-11-15T16:01:06;10.00;99.90
14057;DHT22;7103;54.300;10.180;2022-11-15T16:03:32;9.90;99.90
14057;DHT22;7103;54.300;10.180;2022-11-15T16:05:59;9.90;99.90
14057;DHT22;7103;54.300;10.180;2022-11-15T16:08:27;9.90;99.90
14057;DHT22;7103;54.300;10.180;2022-11-15T16:11:16;9.80;99.90
14057;DHT22;7103;54.300;10.180;2022-11-15T16:13:43;9.70;99.90
14057;DHT22;7103;54.300;10.180;2022-11-15T16:16:12;9.70;99.90
14057;DHT22;7103;54.300;10.180;2022-11-15T16:18:39;9.60;99.90
14057;DHT22;7103;54.300;10.180;2022-11-15T16:21:07;9.60;99.90
14057;DHT22;7103;54.300;10.180;2022-11-15T16:23:34;9.60;99.90
14057;DHT22;7103;54.300;10.180;2022-11-15T16:26:01;9.70;1.00
14057;DHT22;7103;54.300;10.180;2022-11-15T16:28:31;9.60;1.00
14057;DHT22;7103;54.300;10.180;2022-11-15T16:33:31;9.70;1.00
14057;DHT22;7103;54.300;10.180;2022-11-15T16:35:59;9.60;1.00
14057;DHT22;7103;54.300;10.180;2022-11-15T16:38:26;9.60;1.00
14057;DHT22;7103;54.300;10.180;2022-11-15T16:40:53;9.60;1.00
14057;DHT22;7103;54.300;10.180;2022-11-15T16:43:19;9.60;1.00
14057;DHT22;7103;54.300;10.180;2022-11-15T16:45:46;9.70;1.00
14057;DHT22;7103;54.300;10.180;2022-11-15T16:48:24;9.70;1.00
14057;DHT22;7103;54.300;10.180;2022-11-15T16:50:54;9.60;1.00
14057;DHT22;7103;54.300;10.180;2022-11-15T16:53:22;9.70;1.00
14057;DHT22;7103;54.300;10.180;2022-11-15T16:55:49;9.70;1.00
14057;DHT22;7103;54.300;10.180;2022-11-15T16:58:16;9.60;1.00
14057;DHT22;7103;54.300;10.180;2022-11-15T17:00:43;9.50;1.00
14057;DHT22;7103;54.300;10.180;2022-11-15T17:03:10;9.50;1.00
14057;DHT22;7103;54.300;10.180;2022-11-15T17:05:37;9.50;1.00
14057;DHT22;7103;54.300;10.180;2022-11-15T17:08:04;9.50;1.00
14057;DHT22;7103;54.300;10.180;2022-11-15T17:10:32;9.60;1.00
14057;DHT22;7103;54.300;10.180;2022-11-15T17:12:59;9.70;1.00
14057;DHT22;7103;54.300;10.180;2022-11-15T17:15:26;9.70;1.00
14057;DHT22;7103;54.300;10.180;2022-11-15T17:17:53;9.80;1.00
14057;DHT22;7103;54.300;10.180;2022-11-15T17:20:23;9.70;1.00
14057;DHT22;7103;54.300;10.180;2022-11-15T17:22:50;9.60;1.00
14057;DHT22;7103;54.300;10.180;2022-11-15T17:25:18;9.50;1.00
14057;DHT22;7103;54.300;10.180;2022-11-15T17:27:45;9.50;1.00
14057;DHT22;7103;54.300;10.180;2022-11-15T17:30:13;9.50;1.00
14057;DHT22;7103;54.300;10.180;2022-11-15T17:32:44;9.50;1.00
14057;DHT22;7103;54.300;10.180;2022-11-15T17:35:12;9.50;1.00
14057;DHT22;7103;54.300;10.180;2022-11-15T17:37:42;9.50;1.00
14057;DHT22;7103;54.300;10.180;2022-11-15T17:40:09;9.50;1.00
14057;DHT22;7103;54.300;10.180;2022-11-15T17:42:36;9.50;1.00
14057;DHT22;7103;54.300;10.180;2022-11-15T17:45:06;9.60;1.00
14057;DHT22;7103;54.300;10.180;2022-11-15T17:47:36;9.60;1.00
14057;DHT22;7103;54.300;10.180;2022-11-15T17:50:03;9.60;1.00
14057;DHT22;7103;54.300;10.180;2022-11-15T17:52:30;9.70;1.00
14057;DHT22;7103;54.300;10.180;2022-11-15T17:54:57;9.80;1.00
14057;DHT22;7103;54.300;10.180;2022-11-15T17:57:24;9.70;1.00
14057;DHT22;7103;54.300;10.180;2022-11-15T17:59:51;9.50;1.00
14057;DHT22;7103;54.300;10.180;2022-11-15T18:02:18;9.60;1.00
14057;DHT22;7103;54.300;10.180;2022-11-15T18:04:45;9.60;1.00
14057;DHT22;7103;54.300;10.180;2022-11-15T18:07:12;9.70;1.00
14057;DHT22;7103;54.300;10.180;2022-11-15T18:09:40;9.70;1.00
14057;DHT22;7103;54.300;10.180;2022-11-15T18:12:10;9.80;1.00
14057;DHT22;7103;54.300;10.180;2022-11-15T18:14:37;9.80;1.00
14057;DHT22;7103;54.300;10.180;2022-11-15T18:17:04;9.80;1.00
14057;DHT22;7103;54.300;10.180;2022-11-15T18:19:31;9.80;1.00
14057;DHT22;7103;54.300;10.180;2022-11-15T18:21:59;9.80;1.00
14057;DHT22;7103;54.300;10.180;2022-11-15T18:24:34;9.90;1.00
14057;DHT22;7103;54.300;10.180;2022-11-15T18:27:03;9.90;1.00
14057;DHT22;7103;54.300;10.180;2022-11-15T18:29:31;9.90;1.00
14057;DHT22;7103;54.300;10.180;2022-11-15T18:32:00;9.90;1.00
14057;DHT22;7103;54.300;10.180;2022-11-15T18:34:30;9.90;1.00
14057;DHT22;7103;54.300;10.180;2022-11-15T18:37:00;9.90;1.00
14057;DHT22;7103;54.300;10.180;2022-11-15T18:39:28;9.90;1.00
14057;DHT22;7103;54.300;10.180;2022-11-15T18:41:55;9.90;1.00
14057;DHT22;7103;54.300;10.180;2022-11-15T18:44:22;9.90;1.00
14057;DHT22;7103;54.300;10.180;2022-11-15T18:46:49;9.90;1.00
14057;DHT22;7103;54.300;10.180;2022-11-15T18:49:16;10.00;1.00
14057;DHT22;7103;54.300;10.180;2022-11-15T18:51:45;10.00;1.00
14057;DHT22;7103;54.300;10.180;2022-11-15T18:54:14;10.20;1.00
14057;DHT22;7103;54.300;10.180;2022-11-15T18:56:41;10.00;1.00